Time;durP1;ratioP1;P1;durP2;ratioP2;P2;SDS_P1;SDS_P2;PMS_P1;PMS_P2;Temp;Humidity;BMP_temperature;BMP_pressure;BME280_temperature;BME280_humidity;BME280_pressure;Samples;Min_cycle;Max_cycle;Signal;HPM_P1;HPM_P2
2021/09/20 00:02:16;;;;;;;3.45;2.60;;;;;;;20.79;52.97;101902.97;4756151;30;20031;-78
2021/09/20 00:04:42;;;;;;;4.00;2.78;;;;;;;20.81;52.83;101915.16;4747046;30;20122;-77
2021/09/20 00:07:07;;;;;;;2.85;2.50;;;;;;;20.75;52.77;101912.56;4765764;30;20031;-77
2021/09/20 00:09:32;;;;;;;2.97;2.70;;;;;;;20.80;53.19;101909.94;4767542;30;20027;-77
2021/09/20 00:11:58;;;;;;;2.90;2.45;;;;;;;20.85;53.03;101911.63;4767425;30;20046;-77
2021/09/20 00:14:24;;;;;;;2.95;2.53;;;;;;;20.86;53.14;101905.53;4778656;30;20090;-78
2021/09/20 00:16:49;;;;;;;3.35;2.65;;;;;;;20.85;53.26;101909.03;4733269;30;20044;-77
2021/09/20 00:19:15;;;;;;;4.35;2.63;;;;;;;20.79;52.74;101903.81;4764289;30;20035;-77
2021/09/20 00:21:40;;;;;;;3.35;2.70;;;;;;;20.81;52.94;101903.81;4777980;30;20032;-79
2021/09/20 00:24:06;;;;;;;3.40;2.45;;;;;;;20.83;52.83;101905.53;4767952;30;20055;-78
2021/09/20 00:26:31;;;;;;;2.83;2.30;;;;;;;20.83;52.83;101909.91;4731479;30;20060;-78
2021/09/20 00:28:57;;;;;;;5.05;2.55;;;;;;;20.77;52.96;101902.09;4712935;30;20062;-79
2021/09/20 00:31:22;;;;;;;3.53;2.28;;;;;;;20.75;52.76;101913.44;4711634;30;20036;-79
2021/09/20 00:33:48;;;;;;;3.50;2.30;;;;;;;20.78;52.86;101915.19;4736128;30;20492;-78
2021/09/20 00:36:13;;;;;;;3.53;2.67;;;;;;;20.79;52.73;101922.13;4723305;30;20047;-76
2021/09/20 00:38:38;;;;;;;2.53;2.33;;;;;;;20.77;52.86;101925.63;4725144;30;20044;-77
2021/09/20 00:41:04;;;;;;;3.67;2.70;;;;;;;20.74;52.84;101930.00;4746712;30;20039;-77
2021/09/20 00:43:29;;;;;;;2.58;2.35;;;;;;;20.74;52.93;101927.38;4773053;30;20040;-77
2021/09/20 00:45:55;;;;;;;2.78;2.38;;;;;;;20.73;52.86;101930.91;4748732;30;20032;-78
2021/09/20 00:48:20;;;;;;;4.30;2.47;;;;;;;20.72;52.82;101931.75;4748419;30;20044;-77
2021/09/20 00:50:46;;;;;;;3.28;2.67;;;;;;;20.71;52.83;101937.03;4735310;30;20093;-77
2021/09/20 00:53:11;;;;;;;3.38;2.42;;;;;;;20.70;52.69;101933.50;4764692;30;20024;-78
2021/09/20 00:55:40;;;;;;;3.05;2.42;;;;;;;20.73;52.96;101930.91;4749452;30;20097;-77
2021/09/20 00:58:08;;;;;;;3.90;2.20;;;;;;;20.76;52.97;101932.63;4762736;30;20048;-77
2021/09/20 01:00:33;;;;;;;3.00;2.55;;;;;;;20.72;52.70;101931.75;4737457;30;20057;-77
2021/09/20 01:02:59;;;;;;;3.47;2.17;;;;;;;20.75;53.05;101930.88;4732203;30;20036;-77
2021/09/20 01:05:24;;;;;;;2.92;2.50;;;;;;;20.78;52.92;101936.09;4715771;30;20040;-77
2021/09/20 01:07:50;;;;;;;2.95;2.60;;;;;;;20.75;52.52;101934.38;4744849;30;20483;-77
2021/09/20 01:10:15;;;;;;;3.15;2.30;;;;;;;20.71;52.79;101937.03;4751608;30;20373;-78
2021/09/20 01:12:41;;;;;;;2.90;2.30;;;;;;;20.72;52.03;101933.50;4742512;30;20036;-78
2021/09/20 01:15:07;;;;;;;3.10;2.47;;;;;;;20.68;52.59;101935.25;4764413;30;20031;-78
2021/09/20 01:17:32;;;;;;;4.07;2.80;;;;;;;20.65;52.10;101937.06;4766371;30;20039;-78
2021/09/20 01:19:59;;;;;;;3.00;2.65;;;;;;;20.63;52.25;101938.78;4735590;30;20042;-78
2021/09/20 01:22:24;;;;;;;4.20;2.65;;;;;;;20.64;52.53;101930.06;4729141;30;20024;-78
2021/09/20 01:24:50;;;;;;;2.88;2.28;;;;;;;20.64;52.35;101937.91;4739713;29;20546;-78
2021/09/20 01:27:18;;;;;;;3.10;2.47;;;;;;;20.66;52.25;101936.16;4779760;30;20027;-78
2021/09/20 01:29:44;;;;;;;2.53;2.17;;;;;;;20.63;52.00;101934.44;4765708;30;20031;-78
2021/09/20 01:32:10;;;;;;;3.50;2.50;;;;;;;20.64;52.19;101933.53;4754993;30;20031;-79
2021/09/20 01:34:36;;;;;;;2.92;2.25;;;;;;;20.68;52.48;101930.03;4782674;30;20091;-78
2021/09/20 01:37:02;;;;;;;2.95;2.45;;;;;;;20.70;52.46;101940.50;4768297;30;20031;-78
2021/09/20 01:39:31;;;;;;;3.33;2.10;;;;;;;20.72;52.09;101936.13;4760402;30;20110;-78
2021/09/20 01:41:57;;;;;;;3.33;2.17;;;;;;;20.74;52.53;101935.25;4765447;30;20118;-78
2021/09/20 01:44:23;;;;;;;4.68;2.65;;;;;;;20.71;51.90;101943.13;4765072;30;20402;-78
2021/09/20 01:46:50;;;;;;;2.97;2.22;;;;;;;20.76;52.13;101948.31;4764679;30;20095;-78
2021/09/20 01:49:16;;;;;;;2.33;2.10;;;;;;;20.80;52.39;101942.19;4755540;30;20031;-78
2021/09/20 01:51:43;;;;;;;2.95;2.50;;;;;;;20.73;52.44;101943.97;4776838;30;20056;-78
2021/09/20 01:54:09;;;;;;;3.35;2.33;;;;;;;20.71;52.61;101948.34;4792103;30;20046;-78
2021/09/20 01:56:35;;;;;;;2.75;2.33;;;;;;;20.70;52.38;101949.22;4777346;30;20042;-78
2021/09/20 01:59:01;;;;;;;3.10;2.53;;;;;;;20.68;52.03;101950.09;4772892;30;20123;-78
2021/09/20 02:01:27;;;;;;;2.95;2.38;;;;;;;20.62;52.09;101943.16;4757833;30;20057;-78
2021/09/20 02:03:53;;;;;;;2.78;2.15;;;;;;;20.62;51.93;101950.13;4782031;30;20031;-78
2021/09/20 02:06:20;;;;;;;5.65;2.53;;;;;;;20.61;51.74;101958.84;4765837;30;20055;-78
2021/09/20 02:08:47;;;;;;;5.47;2.55;;;;;;;20.58;51.89;101956.25;4766127;30;20114;-78
2021/09/20 02:11:12;;;;;;;2.72;2.30;;;;;;;20.55;52.03;101959.72;4751284;30;20040;-77
2021/09/20 02:13:38;;;;;;;3.08;2.38;;;;;;;20.55;51.49;101949.25;4735459;30;20116;-77
2021/09/20 02:16:05;;;;;;;2.75;2.40;;;;;;;20.57;51.68;101955.38;4789778;30;20035;-77
2021/09/20 02:18:30;;;;;;;2.50;2.30;;;;;;;20.56;51.87;101953.63;4769285;30;20449;-77
2021/09/20 02:20:56;;;;;;;3.67;2.35;;;;;;;20.60;52.07;101954.47;4796669;30;20031;-78
2021/09/20 02:23:21;;;;;;;3.38;2.28;;;;;;;20.63;51.89;101955.34;4768618;30;20035;-77
2021/09/20 02:25:46;;;;;;;2.75;2.55;;;;;;;20.63;51.77;101959.72;4778845;30;20210;-78
2021/09/20 02:28:13;;;;;;;2.88;2.35;;;;;;;20.58;51.47;101962.38;4768371;30;20118;-78
2021/09/20 02:30:39;;;;;;;2.97;2.40;;;;;;;20.58;51.90;101964.97;4749366;30;20042;-78
2021/09/20 02:33:04;;;;;;;3.03;2.30;;;;;;;20.62;52.13;101968.44;4757896;30;20036;-77
2021/09/20 02:35:30;;;;;;;2.92;2.22;;;;;;;20.64;52.23;101970.16;4759512;30;20127;-78
2021/09/20 02:37:56;;;;;;;3.20;2.42;;;;;;;20.68;52.26;101964.03;4767984;30;20062;-78
2021/09/20 02:40:21;;;;;;;2.53;2.17;;;;;;;20.69;52.04;101965.78;4760855;30;20039;-78
2021/09/20 02:42:47;;;;;;;3.53;2.40;;;;;;;20.67;51.79;101972.78;4769654;30;20046;-77
2021/09/20 02:45:13;;;;;;;2.95;2.50;;;;;;;20.64;52.17;101969.28;4768299;30;20467;-78
2021/09/20 02:47:38;;;;;;;2.88;2.13;;;;;;;20.67;52.42;101975.38;4768338;30;20031;-78
2021/09/20 02:50:06;;;;;;;4.50;2.55;;;;;;;20.67;51.83;101975.38;4768361;30;20031;-78
2021/09/20 02:52:32;;;;;;;2.58;2.38;;;;;;;20.70;51.68;101977.97;4752547;30;20468;-78
2021/09/20 02:55:00;;;;;;;3.13;2.25;;;;;;;20.70;51.90;101975.38;4750698;30;20036;-77
2021/09/20 02:57:26;;;;;;;2.50;2.00;;;;;;;20.71;51.82;101984.97;4759192;30;20034;-78
2021/09/20 02:59:51;;;;;;;3.33;2.40;;;;;;;20.67;51.57;101980.63;4782872;30;20114;-78
2021/09/20 03:02:18;;;;;;;2.63;2.28;;;;;;;20.68;51.84;101982.34;4755189;30;20040;-78
2021/09/20 03:04:43;;;;;;;3.70;2.40;;;;;;;20.63;51.73;101993.72;4750054;30;20035;-78
2021/09/20 03:07:09;;;;;;;2.97;2.67;;;;;;;20.64;51.65;101988.47;4754821;30;20110;-77
2021/09/20 03:09:34;;;;;;;3.75;2.58;;;;;;;20.64;51.40;101985.84;4759218;30;20027;-78
2021/09/20 03:12:00;;;;;;;2.33;2.13;;;;;;;20.63;51.56;101985.88;4787752;30;20050;-78
2021/09/20 03:14:25;;;;;;;3.00;2.50;;;;;;;20.60;51.35;101992.00;4773763;30;20036;-76
2021/09/20 03:16:51;;;;;;;3.55;2.38;;;;;;;20.59;51.18;101989.38;4754231;30;20059;-77
2021/09/20 03:19:16;;;;;;;3.45;2.25;;;;;;;20.60;51.46;101999.84;4757533;30;20035;-78
2021/09/20 03:21:42;;;;;;;3.92;2.38;;;;;;;20.62;51.41;101999.81;4775130;30;20081;-79
2021/09/20 03:24:10;;;;;;;2.80;2.60;;;;;;;20.63;51.57;102009.41;4749478;30;20042;-79
2021/09/20 03:26:35;;;;;;;2.78;2.35;;;;;;;20.66;51.49;102007.63;4750310;30;20092;-79
2021/09/20 03:29:01;;;;;;;2.85;2.22;;;;;;;20.71;51.68;102010.25;4781336;30;20040;-79
2021/09/20 03:31:26;;;;;;;2.45;2.25;;;;;;;20.71;51.76;102013.75;4774984;30;20130;-79
2021/09/20 03:33:52;;;;;;;2.45;1.98;;;;;;;20.72;51.86;102010.22;4756363;30;20064;-78
2021/09/20 03:36:17;;;;;;;2.10;1.90;;;;;;;20.72;51.81;102010.22;4777031;30;20093;-78
2021/09/20 03:38:45;;;;;;;2.38;2.17;;;;;;;20.69;51.70;102015.50;4783164;30;20040;-78
2021/09/20 03:41:10;;;;;;;2.58;1.98;;;;;;;20.67;51.45;102013.75;4781770;30;20035;-78
2021/09/20 03:43:36;;;;;;;2.65;2.28;;;;;;;20.60;51.44;102015.53;4765433;30;20047;-78
2021/09/20 03:46:01;;;;;;;2.45;2.20;;;;;;;20.58;51.23;102019.91;4758660;30;20043;-78
2021/09/20 03:48:27;;;;;;;2.50;2.20;;;;;;;20.64;51.54;102013.75;4763287;30;20059;-78
2021/09/20 03:50:52;;;;;;;2.70;2.30;;;;;;;20.61;51.54;102021.63;4763703;30;20036;-78
2021/09/20 03:53:17;;;;;;;3.10;2.40;;;;;;;20.60;51.24;102019.88;4778694;30;20027;-78
2021/09/20 03:55:43;;;;;;;2.83;2.33;;;;;;;20.55;51.33;102027.69;4767036;30;20372;-78
2021/09/20 03:58:08;;;;;;;2.78;2.22;;;;;;;20.54;51.65;102025.97;4773776;30;20031;-78
2021/09/20 04:00:34;;;;;;;2.67;2.17;;;;;;;20.57;51.43;102030.31;4745441;30;20035;-78
2021/09/20 04:03:00;;;;;;;5.68;2.60;;;;;;;20.53;51.27;102035.56;4760469;30;20453;-78
2021/09/20 04:05:26;;;;;;;2.50;2.17;;;;;;;20.56;51.45;102039.91;4780819;30;20035;-77
2021/09/20 04:07:51;;;;;;;2.78;2.25;;;;;;;20.57;51.59;102044.28;4763073;30;20508;-78
2021/09/20 04:10:17;;;;;;;2.15;1.88;;;;;;;20.63;51.63;102046.91;4764792;30;20046;-79
2021/09/20 04:12:43;;;;;;;2.92;2.15;;;;;;;20.64;51.35;102053.00;4779314;30;20032;-78
2021/09/20 04:15:10;;;;;;;2.53;2.10;;;;;;;20.59;50.94;102060.84;4761860;30;20036;-78
2021/09/20 04:17:35;;;;;;;4.82;2.10;;;;;;;20.58;51.38;102056.50;4778170;30;20057;-78
2021/09/20 04:20:01;;;;;;;2.85;2.35;;;;;;;20.57;51.04;102053.84;4776383;30;20040;-78
2021/09/20 04:22:26;;;;;;;2.45;2.08;;;;;;;20.58;50.99;102059.13;4770835;30;20127;-77
2021/09/20 04:24:52;;;;;;;4.75;2.03;;;;;;;20.53;51.30;102058.22;4775137;29;20047;-78
2021/09/20 04:27:17;;;;;;;5.40;2.42;;;;;;;20.49;50.78;102057.38;4762980;30;20035;-77
2021/09/20 04:29:42;;;;;;;7.57;4.00;;;;;;;20.53;51.37;102056.50;4756545;30;20040;-78
2021/09/20 04:32:08;;;;;;;11.30;4.85;;;;;;;20.50;51.23;102064.31;4730112;30;20064;-78
2021/09/20 04:34:34;;;;;;;12.70;4.95;;;;;;;20.47;51.00;102063.44;4744551;30;20074;-79
2021/09/20 04:36:59;;;;;;;8.85;4.90;;;;;;;20.47;51.06;102061.72;4729655;30;20043;-78
2021/09/20 04:39:25;;;;;;;10.55;4.45;;;;;;;20.52;51.06;102062.56;4714660;30;20047;-78
2021/09/20 04:41:50;;;;;;;8.48;4.13;;;;;;;20.55;51.17;102067.78;4759200;30;20029;-78
2021/09/20 04:44:16;;;;;;;8.85;4.30;;;;;;;20.56;51.46;102068.69;4730531;30;20127;-78
2021/09/20 04:46:45;;;;;;;7.10;3.60;;;;;;;20.57;51.15;102069.53;4729646;30;20032;-78
2021/09/20 04:49:10;;;;;;;7.40;3.67;;;;;;;20.57;51.30;102072.16;4730216;30;20036;-78
2021/09/20 04:51:36;;;;;;;6.55;3.55;;;;;;;20.53;50.88;102068.66;4733417;30;20049;-78
2021/09/20 04:54:01;;;;;;;10.40;4.13;;;;;;;20.51;51.20;102076.53;4764531;30;20036;-78
2021/09/20 04:56:26;;;;;;;6.95;3.72;;;;;;;20.49;50.92;102074.78;4764111;30;20036;-78
2021/09/20 04:58:52;;;;;;;9.23;3.53;;;;;;;20.47;50.80;102076.53;4748868;30;20099;-78
2021/09/20 05:01:17;;;;;;;5.85;3.47;;;;;;;20.49;51.03;102080.00;4748587;30;20128;-78
2021/09/20 05:03:46;;;;;;;5.10;3.20;;;;;;;20.45;50.42;102088.75;4732598;30;20067;-78
2021/09/20 05:06:11;;;;;;;5.15;3.70;;;;;;;20.46;50.83;102082.63;4733491;30;20068;-78
2021/09/20 05:08:40;;;;;;;6.63;3.42;;;;;;;20.45;50.67;102088.75;4734063;30;20036;-78
2021/09/20 05:11:05;;;;;;;7.85;3.53;;;;;;;20.44;50.46;102100.06;4733209;30;20032;-78
2021/09/20 05:13:30;;;;;;;8.05;4.15;;;;;;;20.43;50.54;102098.34;4747207;30;20043;-78
2021/09/20 05:15:56;;;;;;;8.13;3.97;;;;;;;20.43;50.36;102098.34;4732438;30;20036;-78
2021/09/20 05:18:24;;;;;;;22.38;7.35;;;;;;;20.51;50.54;102096.56;4736404;30;20052;-80
2021/09/20 05:20:50;;;;;;;25.17;8.27;;;;;;;20.65;50.89;102096.59;4768373;30;20036;-81
2021/09/20 05:23:16;;;;;;;21.52;7.30;;;;;;;20.80;51.08;102099.16;4753332;30;20063;-81
2021/09/20 05:25:43;;;;;;;15.27;6.28;;;;;;;20.89;51.27;102098.25;4751506;30;20056;-79
2021/09/20 05:28:08;;;;;;;11.20;5.72;;;;;;;20.82;51.03;102101.75;4765271;30;20040;-80
2021/09/20 05:30:34;;;;;;;13.15;5.15;;;;;;;20.85;51.03;102105.25;4751679;30;20070;-80
2021/09/20 05:33:00;;;;;;;12.40;5.13;;;;;;;20.81;50.88;102106.13;4771197;30;20056;-80
2021/09/20 05:35:26;;;;;;;14.57;5.28;;;;;;;20.84;50.66;102106.13;4761134;30;20059;-80
2021/09/20 05:37:52;;;;;;;8.48;4.55;;;;;;;20.87;50.85;102110.47;4752700;30;20051;-80
2021/09/20 05:40:18;;;;;;;9.57;4.35;;;;;;;20.88;51.13;102110.47;4766539;30;20032;-80
2021/09/20 05:42:45;;;;;;;11.98;4.90;;;;;;;20.94;50.81;102118.28;4767495;30;20084;-80
2021/09/20 05:45:17;;;;;;;12.38;5.05;;;;;;;20.83;50.48;102117.47;4764529;30;20044;-80
2021/09/20 05:47:42;;;;;;;9.40;4.53;;;;;;;20.87;50.59;102120.94;4750452;30;20032;-80
2021/09/20 05:50:09;;;;;;;9.20;4.13;;;;;;;20.83;51.18;102121.81;4750161;30;20055;-80
2021/09/20 05:52:36;;;;;;;8.48;4.30;;;;;;;20.90;50.92;102123.53;4750641;30;20032;-80
2021/09/20 05:55:02;;;;;;;6.88;4.18;;;;;;;20.96;50.96;102123.53;4754912;30;20036;-80
2021/09/20 05:57:28;;;;;;;7.45;4.40;;;;;;;20.97;50.51;102127.91;4778328;30;20040;-80
2021/09/20 05:59:57;;;;;;;9.57;4.32;;;;;;;20.89;50.65;102129.66;4762292;30;20041;-81
2021/09/20 06:02:22;;;;;;;10.27;4.28;;;;;;;20.87;50.41;102134.03;4755381;30;20024;-80
2021/09/20 06:04:49;;;;;;;8.15;4.25;;;;;;;20.98;50.47;102129.63;4773557;30;20028;-81
2021/09/20 06:07:16;;;;;;;7.45;3.90;;;;;;;21.02;50.38;102127.88;4776491;30;20027;-81
2021/09/20 06:09:41;;;;;;;8.15;4.28;;;;;;;20.96;50.30;102124.38;4730325;30;20027;-80
2021/09/20 06:12:07;;;;;;;6.43;3.65;;;;;;;20.98;50.59;102137.47;4755348;30;20036;-81
2021/09/20 06:14:33;;;;;;;9.85;4.35;;;;;;;21.04;50.90;102139.22;4769671;30;20032;-80
2021/09/20 06:16:59;;;;;;;7.10;4.20;;;;;;;21.07;50.19;102137.44;4769712;30;20032;-80
2021/09/20 06:19:25;;;;;;;6.32;3.65;;;;;;;21.07;50.01;102141.81;4754065;30;20036;-80
2021/09/20 06:21:51;;;;;;;7.13;4.40;;;;;;;21.07;49.80;102142.69;4753701;30;20104;-80
2021/09/20 06:24:19;;;;;;;6.43;3.80;;;;;;;21.03;49.89;102140.06;4769925;30;20052;-80
2021/09/20 06:26:45;;;;;;;8.23;4.03;;;;;;;21.11;50.15;102141.78;4752867;30;20067;-80
2021/09/20 06:29:11;;;;;;;7.20;3.90;;;;;;;21.15;50.16;102148.75;4753511;30;20036;-81
2021/09/20 06:31:39;;;;;;;6.70;3.72;;;;;;;21.21;49.84;102152.22;4764602;30;20036;-80
2021/09/20 06:34:08;;;;;;;8.25;3.92;;;;;;;21.19;49.43;102152.25;4752671;30;20036;-80
2021/09/20 06:36:34;;;;;;;5.72;4.07;;;;;;;21.44;50.21;102152.16;4767838;30;20062;-81
2021/09/20 06:38:59;;;;;;;6.03;3.70;;;;;;;21.69;48.14;102160.78;4766350;30;20032;-80
2021/09/20 06:41:26;;;;;;;8.50;4.32;;;;;;;21.90;47.47;102160.63;4767440;30;20035;-79
2021/09/20 06:43:52;;;;;;;6.75;3.95;;;;;;;22.07;47.37;102157.88;4752081;30;20059;-80
2021/09/20 06:46:18;;;;;;;6.00;3.60;;;;;;;22.23;46.83;102160.41;4736120;30;20040;-81
2021/09/20 06:48:44;;;;;;;6.72;4.30;;;;;;;22.36;46.27;102162.94;4750359;30;20032;-80
2021/09/20 06:51:10;;;;;;;7.43;3.85;;;;;;;22.42;46.71;102161.13;4736558;30;20578;-79
2021/09/20 06:53:37;;;;;;;5.90;3.65;;;;;;;22.50;46.44;102165.44;4750011;30;20058;-79
2021/09/20 06:56:03;;;;;;;6.30;3.92;;;;;;;22.51;46.19;102164.53;4751725;30;20044;-80
2021/09/20 06:58:29;;;;;;;8.95;3.88;;;;;;;22.60;44.89;102168.81;4750938;30;20039;-80
2021/09/20 07:00:56;;;;;;;5.10;3.65;;;;;;;22.65;46.09;102158.31;4765948;30;20039;-79
2021/09/20 07:03:21;;;;;;;6.78;3.80;;;;;;;22.70;44.73;102165.22;4750024;30;20048;-79
2021/09/20 07:05:47;;;;;;;4.88;3.65;;;;;;;22.70;45.16;102167.00;4749819;30;20036;-80
2021/09/20 07:08:13;;;;;;;5.80;3.50;;;;;;;22.75;45.20;102168.66;4764844;30;20031;-79
2021/09/20 07:10:38;;;;;;;5.65;3.53;;;;;;;22.82;44.50;102169.50;4749412;30;20032;-80
2021/09/20 07:13:09;;;;;;;4.88;3.25;;;;;;;22.85;44.63;102168.59;4764811;30;20113;-80
2021/09/20 07:15:36;;;;;;;5.22;3.45;;;;;;;22.86;44.27;102173.81;4765045;30;20094;-79
2021/09/20 07:18:08;;;;;;;5.97;3.80;;;;;;;22.91;43.88;102168.53;4750014;30;20040;-80
2021/09/20 07:20:34;;;;;;;5.53;3.67;;;;;;;22.93;43.30;102169.38;4750229;30;20028;-80
2021/09/20 07:23:00;;;;;;;3.92;3.05;;;;;;;22.96;43.73;102166.72;4749342;30;20048;-80
2021/09/20 07:25:28;;;;;;;6.65;3.50;;;;;;;22.96;43.92;102172.84;4749143;30;20060;-80
2021/09/20 07:27:55;;;;;;;4.57;3.15;;;;;;;22.98;43.73;102171.06;4751048;30;20043;-80
2021/09/20 07:30:21;;;;;;;4.97;3.10;;;;;;;23.00;43.83;102179.81;4749748;30;20028;-80
2021/09/20 07:32:51;;;;;;;3.75;2.90;;;;;;;23.05;43.60;102184.16;4765190;30;20042;-80
2021/09/20 07:35:18;;;;;;;4.32;2.90;;;;;;;23.00;42.71;102189.47;4749091;30;20459;-80
2021/09/20 07:37:51;;;;;;;5.88;3.33;;;;;;;22.98;41.98;102192.06;4765692;30;20032;-80
2021/09/20 07:40:19;;;;;;;4.55;3.00;;;;;;;22.54;43.54;102193.38;4765703;30;20044;-80
2021/09/20 07:42:49;;;;;;;5.05;3.55;;;;;;;22.17;43.78;102195.41;4749088;30;20061;-80
2021/09/20 07:45:16;;;;;;;5.22;3.40;;;;;;;21.96;43.67;102199.03;4733052;30;20032;-80
2021/09/20 07:47:45;;;;;;;4.05;3.17;;;;;;;21.93;43.82;102194.69;4763493;30;20066;-80
2021/09/20 07:50:12;;;;;;;3.97;3.00;;;;;;;22.35;45.04;102202.28;4765406;30;20035;-80
2021/09/20 07:52:47;;;;;;;3.83;3.00;;;;;;;22.54;43.87;102203.00;4766434;30;20036;-80
2021/09/20 07:55:17;;;;;;;4.30;3.15;;;;;;;22.62;43.89;102211.66;4766779;30;20032;-80
2021/09/20 07:57:45;;;;;;;4.38;3.35;;;;;;;22.63;43.13;102200.31;4750138;30;20032;-80
2021/09/20 08:00:12;;;;;;;5.50;3.08;;;;;;;22.66;43.62;102223.88;4753754;30;20043;-80
2021/09/20 08:02:39;;;;;;;5.07;3.17;;;;;;;22.67;43.41;102228.25;4754783;30;20040;-80
2021/09/20 08:05:08;;;;;;;4.28;3.35;;;;;;;22.66;42.76;102223.00;4739016;30;20032;-80
2021/09/20 08:07:35;;;;;;;4.38;3.15;;;;;;;22.63;43.64;102225.69;4766225;30;20068;-80
2021/09/20 08:10:02;;;;;;;3.95;2.83;;;;;;;22.64;43.93;102230.88;4749161;30;20043;-80
2021/09/20 08:24:54;;;;;;;4.65;3.28;;;;;;;22.59;42.37;102241.44;4811373;29;20038;-84
2021/09/20 08:27:22;;;;;;;4.32;3.28;;;;;;;22.55;42.66;102244.94;4784197;30;20023;-79
2021/09/20 08:29:50;;;;;;;4.40;3.13;;;;;;;22.49;42.44;102247.63;4768232;30;20054;-79
2021/09/20 08:32:15;;;;;;;3.75;3.00;;;;;;;22.51;43.45;102252.88;4769164;30;20040;-80
2021/09/20 08:34:41;;;;;;;3.58;2.90;;;;;;;22.47;41.89;102256.38;4783990;30;20125;-79
2021/09/20 08:37:07;;;;;;;4.05;3.20;;;;;;;22.48;42.66;102259.00;4783138;30;20066;-79
2021/09/20 08:39:32;;;;;;;4.13;2.97;;;;;;;22.46;43.17;102257.28;4800582;30;20061;-80
2021/09/20 08:42:09;;;;;;;4.28;3.10;;;;;;;22.42;42.06;102260.81;4784344;30;20065;-80
2021/09/20 08:44:35;;;;;;;4.13;3.13;;;;;;;22.32;41.74;102260.88;4796630;30;20043;-78
2021/09/20 08:47:14;;;;;;;6.00;3.60;;;;;;;22.10;41.72;102264.47;4778215;30;20038;-79
2021/09/20 08:49:40;;;;;;;7.35;4.30;;;;;;;22.04;40.66;102272.41;4784168;30;20035;-80
2021/09/20 08:52:12;;;;;;;6.03;3.55;;;;;;;21.91;40.32;102269.81;4766335;30;20053;-79
2021/09/20 08:54:38;;;;;;;4.55;3.42;;;;;;;21.97;40.46;102282.00;4767925;30;20043;-79
2021/09/20 08:57:04;;;;;;;5.22;3.50;;;;;;;21.95;39.66;102278.56;4781219;30;20177;-79
2021/09/20 08:59:31;;;;;;;5.30;3.60;;;;;;;21.89;39.21;102284.69;4765893;30;20039;-79
2021/09/20 09:01:57;;;;;;;5.53;3.67;;;;;;;21.86;39.96;102279.47;4781918;30;20039;-81
2021/09/20 09:04:36;;;;;;;5.18;3.50;;;;;;;21.90;39.61;102275.94;4799178;30;20039;-79
2021/09/20 09:07:09;;;;;;;5.38;3.75;;;;;;;21.84;39.12;102270.75;4783203;30;20048;-80
2021/09/20 09:09:38;;;;;;;4.25;3.67;;;;;;;21.83;39.65;102279.47;4784121;30;20054;-80
2021/09/20 09:12:11;;;;;;;4.50;3.75;;;;;;;21.77;39.24;102274.25;4783165;30;20036;-80
2021/09/20 09:14:57;;;;;;;7.07;3.42;;;;;;;21.76;39.53;102277.75;4786580;30;20031;-81
2021/09/20 09:20:22;;;;;;;7.22;3.50;;;;;;;21.70;38.74;102276.03;4807197;29;20085;-80
2021/09/20 09:23:09;;;;;;;4.45;3.60;;;;;;;21.71;38.90;102274.25;4788425;30;20043;-81
2021/09/20 09:25:43;;;;;;;4.13;3.72;;;;;;;21.67;38.93;102276.06;4800182;30;20507;-80
2021/09/20 09:28:15;;;;;;;6.68;3.60;;;;;;;21.68;39.07;102271.69;4784220;30;20043;-81
2021/09/20 09:30:47;;;;;;;4.07;3.63;;;;;;;21.65;39.11;102280.41;4802253;30;20031;-81
2021/09/20 09:33:18;;;;;;;4.70;3.88;;;;;;;21.64;39.30;102286.53;4796396;30;20027;-82
2021/09/20 09:35:53;;;;;;;4.13;3.70;;;;;;;21.64;39.00;102285.66;4795869;30;20027;-81
2021/09/20 09:38:20;;;;;;;5.03;3.95;;;;;;;21.60;39.67;102281.31;4794450;30;20047;-82
2021/09/20 09:40:57;;;;;;;5.60;3.92;;;;;;;21.59;39.39;102280.44;4797446;30;20039;-82
2021/09/20 09:44:12;;;;;;;4.28;3.63;;;;;;;21.54;39.46;102290.94;4798357;29;20047;-81
2021/09/20 09:47:02;;;;;;;4.68;3.85;;;;;;;21.53;39.37;102283.06;4755866;30;20463;-81
2021/09/20 09:50:09;;;;;;;5.07;3.85;;;;;;;21.52;39.51;102295.31;4749781;30;20051;-80
2021/09/20 09:52:38;;;;;;;4.55;3.97;;;;;;;21.47;39.92;102296.19;4738706;30;20044;-81
2021/09/20 09:55:17;;;;;;;6.07;3.67;;;;;;;21.48;39.74;102290.09;4752543;30;20048;-80
2021/09/20 09:57:51;;;;;;;4.53;3.90;;;;;;;21.46;39.26;102299.69;4735838;30;20116;-81
2021/09/20 10:00:38;;;;;;;4.93;4.00;;;;;;;21.47;39.54;102301.41;4736329;30;20501;-81
2021/09/20 10:03:24;;;;;;;6.38;3.83;;;;;;;21.44;39.97;102299.69;4733583;30;20068;-81
2021/09/20 10:06:39;;;;;;;5.47;4.50;;;;;;;21.42;40.07;102298.81;4733943;30;20040;-81
2021/09/20 10:20:27;;;;;;;5.28;4.25;;;;;;;21.42;40.16;102300.56;4723013;30;20052;-81
2021/09/20 10:26:53;;;;;;;5.00;4.20;;;;;;;21.39;40.14;102301.41;4637420;30;20110;-80
2021/09/20 10:29:57;;;;;;;4.93;4.10;;;;;;;21.38;40.11;102297.03;4621873;31;20044;-82
2021/09/20 10:37:01;;;;;;;6.22;4.38;;;;;;;21.44;40.94;102293.59;4604752;31;20170;-81
2021/09/20 10:40:22;;;;;;;5.90;4.90;;;;;;;21.39;40.58;102298.81;4586008;31;20078;-81
2021/09/20 10:53:58;;;;;;;5.03;4.57;;;;;;;21.46;41.02;102295.31;4541189;31;20037;-81
2021/09/20 11:01:19;;;;;;;5.50;5.00;;;;;;;21.37;41.27;102300.56;4540009;31;20056;-81
2021/09/20 11:11:27;;;;;;;5.68;4.85;;;;;;;21.41;41.02;102322.38;4534237;31;20028;-81
2021/09/20 11:25:49;;;;;;;6.07;4.85;;;;;;;21.51;41.09;102319.78;4554286;31;20057;-82
2021/09/20 11:32:22;;;;;;;5.97;5.35;;;;;;;21.25;39.81;102326.75;4810916;24;20063;-81
2021/09/20 11:35:31;;;;;;;9.27;5.82;;;;;;;21.05;37.86;102325.00;4789718;30;20032;-80
2021/09/20 11:38:19;;;;;;;6.82;5.50;;;;;;;20.95;37.63;102341.63;4783269;30;20052;-80
2021/09/20 11:40:46;;;;;;;7.03;5.53;;;;;;;20.84;37.15;102336.38;4785982;30;20047;-80
2021/09/20 11:43:12;;;;;;;7.43;5.70;;;;;;;20.77;36.90;102334.59;4777189;30;20031;-81
2021/09/20 11:45:38;;;;;;;10.02;6.30;;;;;;;20.72;35.90;102336.34;4792210;30;20016;-80
2021/09/20 11:48:19;;;;;;;8.80;6.10;;;;;;;20.70;36.12;102341.56;4789246;30;20065;-81
2021/09/20 11:51:08;;;;;;;8.68;5.32;;;;;;;20.78;35.80;102338.97;4790068;30;20051;-80
2021/09/20 11:53:40;;;;;;;7.60;5.45;;;;;;;20.90;36.35;102345.94;4772527;30;20082;-81
2021/09/20 11:56:05;;;;;;;7.25;5.25;;;;;;;20.93;35.87;102340.75;4784721;30;20043;-79
2021/09/20 11:58:32;;;;;;;8.77;5.28;;;;;;;20.98;35.63;102338.13;4783201;30;20043;-79
2021/09/20 12:01:04;;;;;;;7.78;5.45;;;;;;;21.03;35.35;102334.63;4787336;30;20031;-81
2021/09/20 12:03:29;;;;;;;7.40;5.00;;;;;;;20.96;36.01;102338.13;4784522;30;20032;-80
2021/09/20 12:06:00;;;;;;;6.50;4.85;;;;;;;20.83;35.67;102336.38;4783907;30;20407;-79
2021/09/20 12:08:27;;;;;;;7.55;5.28;;;;;;;20.77;35.96;102344.19;4782022;30;20039;-80
2021/09/20 12:10:56;;;;;;;6.70;5.35;;;;;;;20.75;35.59;102347.72;4766154;30;20059;-80
2021/09/20 12:13:40;;;;;;;5.80;4.40;;;;;;;20.76;35.71;102345.97;4781344;30;20028;-80
2021/09/20 12:16:09;;;;;;;7.25;4.95;;;;;;;20.79;35.53;102345.06;4783350;30;20039;-80
2021/09/20 12:18:37;;;;;;;7.82;4.55;;;;;;;20.80;35.40;102347.72;4782109;30;20396;-80
2021/09/20 12:21:03;;;;;;;5.53;4.50;;;;;;;20.83;35.88;102349.44;4766541;30;20104;-80
2021/09/20 12:23:29;;;;;;;6.63;5.18;;;;;;;20.75;35.13;102357.28;4782225;30;20027;-80
2021/09/20 12:26:02;;;;;;;7.38;4.95;;;;;;;20.63;34.71;102357.28;4781233;30;20550;-79
2021/09/20 12:28:33;;;;;;;13.30;5.57;;;;;;;20.58;34.95;102353.75;4781815;30;20032;-79
2021/09/20 12:31:23;;;;;;;6.85;5.32;;;;;;;20.52;35.06;102362.44;4779409;30;20089;-80
2021/09/20 12:33:56;;;;;;;6.57;5.82;;;;;;;20.55;34.72;102365.91;4781184;30;20036;-79
2021/09/20 12:36:33;;;;;;;7.10;5.00;;;;;;;20.64;34.81;102359.00;4781953;30;20484;-77
2021/09/20 12:39:26;;;;;;;6.32;4.65;;;;;;;20.68;34.82;102361.63;4788407;30;20031;-81
2021/09/20 12:41:58;;;;;;;7.22;4.82;;;;;;;20.78;35.19;102362.53;4792236;30;20031;-80
2021/09/20 12:44:33;;;;;;;8.25;4.60;;;;;;;20.67;35.39;102361.66;4790047;30;20056;-80
2021/09/20 12:47:07;;;;;;;10.23;4.53;;;;;;;21.02;35.30;102366.91;4780358;30;20494;-78